Time;durP1;ratioP1;P1;durP2;ratioP2;P2;SDS_P1;SDS_P2;PMS_P1;PMS_P2;Temp;Humidity;BMP_temperature;BMP_pressure;BME280_temperature;BME280_humidity;BME280_pressure;Samples;Min_cycle;Max_cycle;Signal;HPM_P1;HPM_P2
2023/04/08 00:02:21;;;;;;;38.88;31.75;;;29.20;85.50;;;;;;1905157;74;21161;-72
2023/04/08 00:04:52;;;;;;;46.88;36.77;;;29.20;85.60;;;;;;1914841;73;21139;-72
2023/04/08 00:07:23;;;;;;;40.92;31.25;;;29.30;85.60;;;;;;1938612;73;21068;-72
2023/04/08 00:09:55;;;;;;;38.15;31.02;;;29.30;85.60;;;;;;1903282;74;21068;-72
2023/04/08 00:12:27;;;;;;;35.52;31.33;;;29.30;85.70;;;;;;1869632;74;21119;-73
2023/04/08 00:14:59;;;;;;;37.20;30.05;;;29.30;85.80;;;;;;1914703;74;21162;-73
2023/04/08 00:17:30;;;;;;;40.12;31.55;;;29.40;85.70;;;;;;1882800;74;21684;-74
2023/04/08 00:20:01;;;;;;;37.98;31.48;;;29.40;86.00;;;;;;1916500;75;21657;-75
2023/04/08 00:22:33;;;;;;;38.05;32.60;;;29.40;85.90;;;;;;1914473;74;21131;-74
2023/04/08 00:25:09;;;;;;;43.80;32.50;;;29.40;85.60;;;;;;1916702;74;21080;-72
2023/04/08 00:27:37;;;;;;;39.20;31.62;;;29.40;85.90;;;;;;1910672;73;21249;-72
2023/04/08 00:30:08;;;;;;;37.10;31.17;;;29.50;83.90;;;;;;1910922;73;21614;-73
2023/04/08 00:32:40;;;;;;;37.93;31.23;;;29.50;85.40;;;;;;1901373;74;21701;-71
2023/04/08 00:35:11;;;;;;;40.35;33.10;;;29.50;85.30;;;;;;1923346;73;21111;-72
2023/04/08 00:37:43;;;;;;;40.15;31.65;;;29.60;85.80;;;;;;1916245;73;21170;-72
2023/04/08 00:40:13;;;;;;;40.75;31.48;;;29.50;84.40;;;;;;1898288;73;21162;-73
2023/04/08 00:42:45;;;;;;;39.98;33.50;;;29.60;84.80;;;;;;1912901;74;21152;-72
2023/04/08 00:45:16;;;;;;;41.48;35.50;;;29.60;83.10;;;;;;1898603;74;21158;-72
2023/04/08 00:47:51;;;;;;;46.58;35.52;;;29.70;84.30;;;;;;1903079;73;21164;-73
2023/04/08 00:50:20;;;;;;;41.53;33.48;;;29.70;84.60;;;;;;1900840;73;21610;-73
2023/04/08 00:52:51;;;;;;;43.13;35.85;;;29.80;84.50;;;;;;1898818;74;21546;-72
2023/04/08 00:55:22;;;;;;;40.60;33.78;;;29.80;84.70;;;;;;1923166;73;21190;-72
2023/04/08 00:57:54;;;;;;;36.63;32.83;;;29.80;84.60;;;;;;1911296;73;21186;-72
2023/04/08 01:00:25;;;;;;;39.75;31.25;;;29.80;84.20;;;;;;1877307;76;21180;-73
2023/04/08 01:03:27;;;;;;;41.15;33.85;;;29.80;83.70;;;;;;1891321;73;21144;-74
2023/04/08 01:06:00;;;;;;;39.95;33.15;;;29.90;83.30;;;;;;1923601;73;21127;-72
2023/04/08 01:08:33;;;;;;;43.70;31.77;;;30.00;83.10;;;;;;1892610;74;21650;-73
2023/04/08 01:11:20;;;;;;;41.30;33.67;;;30.10;83.20;;;;;;1914450;74;21670;-73
2023/04/08 01:13:54;;;;;;;41.77;33.30;;;30.10;83.20;;;;;;1906411;75;21567;-72
2023/04/08 01:16:27;;;;;;;47.35;32.85;;;30.20;83.30;;;;;;1902053;73;21144;-72
2023/04/08 01:18:58;;;;;;;38.48;31.90;;;30.20;83.00;;;;;;1916580;73;21201;-73
2023/04/08 01:21:29;;;;;;;37.25;30.70;;;30.20;82.80;;;;;;1903423;73;21142;-72
2023/04/08 01:24:24;;;;;;;40.67;31.15;;;30.30;82.20;;;;;;1921296;73;21172;-73
2023/04/08 01:26:56;;;;;;;38.58;29.57;;;30.40;82.10;;;;;;1822432;75;21190;-76
2023/04/08 01:29:28;;;;;;;51.70;32.23;;;30.40;81.90;;;;;;1858776;76;21595;-76
2023/04/08 01:32:00;;;;;;;43.52;30.50;;;30.50;82.00;;;;;;1854467;75;21303;-76
2023/04/08 01:34:33;;;;;;;49.00;31.25;;;30.40;81.90;;;;;;1909148;73;21600;-77
2023/04/08 01:37:06;;;;;;;37.08;32.53;;;30.50;82.10;;;;;;1906157;73;21119;-77
2023/04/08 01:39:39;;;;;;;38.90;32.40;;;30.50;81.70;;;;;;1909132;74;21128;-77
2023/04/08 01:42:11;;;;;;;36.05;31.17;;;30.50;81.50;;;;;;1924189;73;21553;-77
2023/04/08 01:44:43;;;;;;;33.15;29.48;;;30.60;82.00;;;;;;1918358;74;21121;-75
2023/04/08 01:47:15;;;;;;;34.30;29.90;;;30.70;80.20;;;;;;1899481;75;21209;-74
2023/04/08 01:49:47;;;;;;;35.00;28.00;;;30.70;80.20;;;;;;1923412;73;21569;-74
2023/04/08 01:52:20;;;;;;;41.98;30.00;;;30.70;79.70;;;;;;1936785;73;21700;-74
2023/04/08 01:54:51;;;;;;;40.78;30.82;;;30.80;79.70;;;;;;1900684;75;21156;-76
2023/04/08 01:57:28;;;;;;;34.18;28.92;;;30.80;79.20;;;;;;1903370;74;21150;-74
2023/04/08 02:00:01;;;;;;;33.42;28.70;;;30.90;79.10;;;;;;1917858;73;22141;-75
2023/04/08 02:02:35;;;;;;;35.92;30.25;;;31.00;79.00;;;;;;1927643;73;21632;-72
2023/04/08 02:05:07;;;;;;;35.43;31.52;;;31.00;79.40;;;;;;1912522;73;21146;-72
2023/04/08 02:07:38;;;;;;;39.58;29.40;;;31.10;79.70;;;;;;1869359;76;21202;-77
2023/04/08 02:10:10;;;;;;;40.80;30.02;;;31.10;78.60;;;;;;1927388;73;21096;-73
2023/04/08 02:12:41;;;;;;;32.80;27.22;;;31.20;79.00;;;;;;1904201;73;21180;-74
2023/04/08 02:15:13;;;;;;;39.40;30.00;;;31.20;78.80;;;;;;1917436;73;21124;-72
2023/04/08 02:17:59;;;;;;;38.88;29.00;;;31.30;78.70;;;;;;1923027;73;22078;-73
2023/04/08 02:20:58;;;;;;;36.42;29.23;;;31.40;78.60;;;;;;1877095;75;21195;-74
2023/04/08 02:23:30;;;;;;;35.65;29.27;;;31.40;78.70;;;;;;1896128;74;21163;-75
2023/04/08 02:26:04;;;;;;;36.05;28.95;;;31.50;78.70;;;;;;1904302;73;21083;-74
2023/04/08 02:28:36;;;;;;;32.03;28.17;;;31.50;77.00;;;;;;1893438;74;21150;-74
2023/04/08 02:31:12;;;;;;;36.13;28.35;;;31.50;76.70;;;;;;1939377;73;21629;-75
2023/04/08 02:33:44;;;;;;;29.75;26.42;;;31.60;77.50;;;;;;1920353;74;21217;-74
2023/04/08 02:36:15;;;;;;;37.65;26.75;;;31.50;77.40;;;;;;1928446;73;21164;-75
2023/04/08 02:38:50;;;;;;;32.23;27.60;;;31.60;77.50;;;;;;1885557;75;21540;-75
2023/04/08 02:41:21;;;;;;;34.23;27.32;;;31.60;77.40;;;;;;1905556;74;21172;-75
2023/04/08 02:43:54;;;;;;;34.10;27.67;;;31.60;77.70;;;;;;1911906;73;21179;-74
2023/04/08 02:46:25;;;;;;;31.42;27.98;;;31.70;77.90;;;;;;1908473;73;21087;-74
2023/04/08 02:48:56;;;;;;;31.07;26.85;;;31.70;77.70;;;;;;1913130;73;21189;-74
2023/04/08 02:51:27;;;;;;;33.15;27.62;;;31.70;77.60;;;;;;1924295;73;21441;-75
2023/04/08 02:53:58;;;;;;;31.05;27.25;;;31.80;77.40;;;;;;1906788;74;21130;-74
2023/04/08 02:56:30;;;;;;;29.90;25.82;;;31.80;76.90;;;;;;1920957;73;21113;-73
2023/04/08 02:59:01;;;;;;;30.00;26.30;;;31.80;76.40;;;;;;1923083;73;21136;-74
2023/04/08 03:01:32;;;;;;;31.27;26.93;;;31.80;76.40;;;;;;1912924;73;21183;-74
2023/04/08 03:04:03;;;;;;;29.98;25.30;;;31.80;76.30;;;;;;1921083;74;21153;-73
2023/04/08 03:06:35;;;;;;;27.60;24.67;;;31.90;75.30;;;;;;1894941;74;21230;-73
2023/04/08 03:09:06;;;;;;;28.07;23.92;;;32.00;74.40;;;;;;1910119;73;21473;-73
2023/04/08 03:11:38;;;;;;;26.97;22.73;;;32.10;74.40;;;;;;1911074;73;21108;-74
2023/04/08 03:14:09;;;;;;;28.35;24.15;;;32.20;71.70;;;;;;1903637;74;21617;-73
2023/04/08 03:16:40;;;;;;;29.55;26.17;;;32.40;72.10;;;;;;1911021;73;21190;-74
2023/04/08 03:19:12;;;;;;;30.65;26.42;;;32.40;72.70;;;;;;1937372;73;21138;-74
2023/04/08 03:21:43;;;;;;;34.78;27.80;;;32.60;74.20;;;;;;1914955;73;21146;-74
2023/04/08 03:24:15;;;;;;;35.28;26.80;;;32.70;74.60;;;;;;1934199;73;21150;-73
2023/04/08 03:26:46;;;;;;;31.97;27.82;;;32.70;73.10;;;;;;1915406;74;21562;-73
2023/04/08 03:29:17;;;;;;;30.82;27.50;;;32.80;73.40;;;;;;1889269;74;21257;-73
2023/04/08 03:31:49;;;;;;;32.33;27.30;;;32.80;73.20;;;;;;1899309;74;21088;-72
2023/04/08 03:34:20;;;;;;;31.55;28.15;;;32.90;72.90;;;;;;1875551;75;21071;-73
2023/04/08 03:36:51;;;;;;;36.95;29.48;;;32.90;73.60;;;;;;1854078;75;21599;-74
2023/04/08 03:39:22;;;;;;;36.38;29.20;;;32.90;73.90;;;;;;1913148;73;21202;-74
2023/04/08 03:41:54;;;;;;;34.70;28.60;;;32.90;73.20;;;;;;1941379;73;21570;-73
2023/04/08 03:44:26;;;;;;;37.15;28.45;;;33.00;73.40;;;;;;1909571;74;21089;-74
2023/04/08 03:46:57;;;;;;;32.17;28.27;;;33.10;73.90;;;;;;1903435;73;21716;-74
2023/04/08 03:49:28;;;;;;;34.92;28.07;;;33.10;73.80;;;;;;1915732;73;21544;-75
2023/04/08 03:51:59;;;;;;;33.25;26.93;;;33.10;73.40;;;;;;1920618;73;21107;-72
2023/04/08 03:54:30;;;;;;;31.02;27.67;;;33.20;73.10;;;;;;1863633;75;21242;-73
2023/04/08 03:57:01;;;;;;;32.50;28.55;;;33.20;72.60;;;;;;1892290;73;21072;-73
2023/04/08 03:59:36;;;;;;;32.95;28.02;;;33.30;72.40;;;;;;1908730;74;21265;-74
2023/04/08 04:02:07;;;;;;;34.13;27.48;;;33.40;72.30;;;;;;1909859;73;21134;-73
2023/04/08 04:04:39;;;;;;;34.53;29.40;;;33.50;71.90;;;;;;1920441;73;21127;-73
2023/04/08 04:07:10;;;;;;;35.30;28.55;;;33.50;71.30;;;;;;1908306;73;21068;-74
2023/04/08 04:09:41;;;;;;;32.80;28.87;;;33.60;71.30;;;;;;1915763;73;21127;-75
2023/04/08 04:12:12;;;;;;;35.08;29.10;;;33.70;71.80;;;;;;1898463;73;21144;-72
2023/04/08 04:14:43;;;;;;;34.85;30.60;;;33.70;72.10;;;;;;1899081;73;21079;-73
2023/04/08 04:17:15;;;;;;;33.35;28.90;;;33.70;72.00;;;;;;1871458;75;21214;-72
2023/04/08 04:19:46;;;;;;;34.58;28.55;;;33.70;71.80;;;;;;1833683;77;21112;-73
2023/04/08 04:22:17;;;;;;;35.80;28.27;;;33.80;71.70;;;;;;1893441;74;21238;-72
2023/04/08 04:24:49;;;;;;;34.23;27.55;;;33.80;71.70;;;;;;1908126;73;21072;-72
2023/04/08 04:27:20;;;;;;;35.65;28.77;;;33.90;71.40;;;;;;1875659;75;21098;-72
2023/04/08 04:29:51;;;;;;;35.13;28.87;;;33.90;71.00;;;;;;1901585;74;21159;-72
2023/04/08 04:32:22;;;;;;;38.38;27.02;;;34.00;70.50;;;;;;1907862;74;21069;-72
2023/04/08 04:34:53;;;;;;;31.42;26.95;;;34.00;70.80;;;;;;1909260;74;21176;-72
2023/04/08 04:37:25;;;;;;;29.25;26.05;;;34.00;70.60;;;;;;1906663;73;21508;-73
2023/04/08 04:39:56;;;;;;;29.95;26.65;;;34.10;70.20;;;;;;1914736;74;21118;-71
2023/04/08 04:42:28;;;;;;;31.85;26.25;;;34.20;70.60;;;;;;1909852;74;21136;-71
2023/04/08 04:44:59;;;;;;;45.23;27.48;;;34.20;70.10;;;;;;1905834;73;22121;-72
2023/04/08 04:47:31;;;;;;;31.95;27.07;;;34.30;70.10;;;;;;1909921;74;21631;-72
2023/04/08 04:50:02;;;;;;;28.92;25.82;;;34.40;69.70;;;;;;1910009;74;21159;-71
2023/04/08 04:52:35;;;;;;;29.92;26.40;;;34.40;69.60;;;;;;1907445;74;21148;-72
2023/04/08 04:55:07;;;;;;;30.48;25.37;;;34.40;69.30;;;;;;1911791;73;21099;-74
2023/04/08 04:57:38;;;;;;;28.77;25.52;;;34.40;69.20;;;;;;1915372;74;21272;-71
2023/04/08 05:00:10;;;;;;;28.50;25.08;;;34.50;69.30;;;;;;1902696;73;21138;-73
2023/04/08 05:02:41;;;;;;;28.60;24.77;;;34.60;69.00;;;;;;1871487;75;21125;-73
2023/04/08 05:05:13;;;;;;;34.27;26.62;;;34.70;68.80;;;;;;1909108;73;21803;-72
2023/04/08 05:07:45;;;;;;;27.10;24.30;;;34.70;68.50;;;;;;1903272;73;21191;-73
2023/04/08 05:10:16;;;;;;;30.57;25.43;;;34.80;67.50;;;;;;1900060;73;21219;-73
2023/04/08 05:12:58;;;;;;;30.90;25.12;;;34.80;68.00;;;;;;1900890;74;21684;-74
2023/04/08 05:15:30;;;;;;;26.90;23.87;;;34.90;67.00;;;;;;1912210;73;21202;-74
2023/04/08 05:18:01;;;;;;;30.00;25.35;;;34.90;66.70;;;;;;1890313;73;21179;-73
2023/04/08 05:20:32;;;;;;;28.55;24.72;;;34.90;67.80;;;;;;1889459;73;21144;-72
2023/04/08 05:23:04;;;;;;;28.67;25.17;;;34.90;67.00;;;;;;1913718;74;21543;-73
2023/04/08 05:25:35;;;;;;;30.35;25.68;;;35.00;67.30;;;;;;1907600;73;21565;-72
2023/04/08 05:28:06;;;;;;;27.93;24.80;;;35.00;67.30;;;;;;1870432;75;21207;-74
2023/04/08 05:30:37;;;;;;;26.97;24.10;;;35.00;66.90;;;;;;1912914;73;21597;-73
2023/04/08 05:33:08;;;;;;;30.12;26.52;;;35.00;66.80;;;;;;1906055;74;21698;-72
2023/04/08 05:35:39;;;;;;;33.02;26.35;;;35.10;67.10;;;;;;1891245;74;21147;-74
2023/04/08 05:38:11;;;;;;;32.83;26.17;;;35.10;66.70;;;;;;1911209;73;21147;-72
2023/04/08 05:40:42;;;;;;;28.62;25.55;;;35.10;66.60;;;;;;1911285;74;21456;-75
2023/04/08 05:43:14;;;;;;;36.00;27.73;;;35.10;67.20;;;;;;1903255;74;21129;-73
2023/04/08 05:45:45;;;;;;;32.20;26.07;;;35.10;67.10;;;;;;1913867;73;21170;-74
2023/04/08 05:48:16;;;;;;;32.15;27.58;;;35.30;66.70;;;;;;1914138;73;21080;-72
2023/04/08 05:50:47;;;;;;;31.57;27.07;;;35.40;67.00;;;;;;1865512;76;21151;-73
2023/04/08 05:53:18;;;;;;;31.23;26.57;;;35.40;66.70;;;;;;1904854;73;21096;-72
2023/04/08 05:55:49;;;;;;;31.73;25.90;;;35.40;66.80;;;;;;1913111;73;21179;-73
2023/04/08 05:58:21;;;;;;;36.28;28.23;;;35.40;67.00;;;;;;1902894;74;21124;-72
2023/04/08 06:00:54;;;;;;;32.60;28.17;;;35.50;67.00;;;;;;1904437;73;21119;-73
2023/04/08 06:03:25;;;;;;;33.15;28.98;;;35.40;66.50;;;;;;1866553;75;21155;-74
2023/04/08 06:05:57;;;;;;;31.27;27.93;;;35.50;66.70;;;;;;1907292;73;21215;-73
2023/04/08 06:08:28;;;;;;;35.65;29.45;;;35.40;66.90;;;;;;1897593;74;21148;-73
2023/04/08 06:10:59;;;;;;;39.27;28.45;;;35.30;66.90;;;;;;1908810;74;21159;-73
2023/04/08 06:13:31;;;;;;;31.52;27.75;;;35.30;67.10;;;;;;1903001;74;21168;-72
2023/04/08 06:16:12;;;;;;;35.65;28.12;;;35.30;67.20;;;;;;1891159;73;21277;-73
2023/04/08 06:18:44;;;;;;;30.88;26.42;;;35.30;67.10;;;;;;1907204;74;21205;-73
2023/04/08 06:21:15;;;;;;;29.57;26.07;;;35.30;67.50;;;;;;1901443;73;21268;-73
2023/04/08 06:23:47;;;;;;;31.73;26.40;;;35.30;67.80;;;;;;1915977;74;21198;-72
2023/04/08 06:26:18;;;;;;;32.15;27.30;;;35.20;67.60;;;;;;1876183;74;21213;-74
2023/04/08 06:28:51;;;;;;;31.50;27.22;;;35.10;67.90;;;;;;1903585;74;21064;-73
2023/04/08 06:31:22;;;;;;;29.75;26.62;;;35.10;68.10;;;;;;1856896;75;21122;-73
2023/04/08 06:33:54;;;;;;;29.67;25.55;;;35.10;68.10;;;;;;1887955;74;21608;-73
2023/04/08 06:36:27;;;;;;;32.15;26.12;;;35.10;67.70;;;;;;1906739;73;21182;-73
2023/04/08 06:38:58;;;;;;;29.87;26.75;;;35.10;67.60;;;;;;1909069;73;21142;-75
2023/04/08 06:41:30;;;;;;;27.02;24.25;;;35.10;67.60;;;;;;1890130;74;21131;-74
2023/04/08 06:44:01;;;;;;;28.00;24.63;;;35.10;67.60;;;;;;1903755;74;21218;-72
2023/04/08 06:46:33;;;;;;;27.48;24.02;;;35.10;66.90;;;;;;1917700;73;21193;-73
2023/04/08 06:49:05;;;;;;;27.32;24.43;;;35.20;67.60;;;;;;1859542;76;21184;-72
2023/04/08 06:51:36;;;;;;;26.17;23.45;;;35.20;67.40;;;;;;1905856;74;21129;-75
2023/04/08 06:54:12;;;;;;;25.88;23.02;;;35.10;67.30;;;;;;1913705;75;21223;-74
2023/04/08 06:56:41;;;;;;;25.95;23.12;;;35.10;67.20;;;;;;1907276;73;21626;-73
2023/04/08 06:59:12;;;;;;;29.40;24.63;;;35.10;67.20;;;;;;1853999;75;21614;-73
2023/04/08 07:01:43;;;;;;;26.82;23.98;;;35.10;67.70;;;;;;1895017;74;21616;-73
2023/04/08 07:04:14;;;;;;;27.60;24.55;;;35.10;67.30;;;;;;1896886;74;21162;-74
2023/04/08 07:06:46;;;;;;;26.20;23.38;;;35.20;67.80;;;;;;1904880;73;21083;-72
2023/04/08 07:09:17;;;;;;;26.45;23.60;;;35.20;67.80;;;;;;1911752;74;21249;-72
2023/04/08 07:11:48;;;;;;;30.15;24.92;;;35.20;68.20;;;;;;1868358;75;21118;-73
2023/04/08 07:14:19;;;;;;;27.93;24.12;;;35.10;67.70;;;;;;1907242;73;21174;-74
2023/04/08 07:16:50;;;;;;;26.80;23.38;;;35.10;67.80;;;;;;1874997;75;21160;-75
2023/04/08 07:19:23;;;;;;;28.40;24.30;;;35.10;67.90;;;;;;1908570;73;21090;-73
2023/04/08 07:21:54;;;;;;;28.42;25.12;;;35.10;68.30;;;;;;1865465;75;21154;-74
2023/04/08 07:24:33;;;;;;;27.98;25.08;;;35.00;68.30;;;;;;1846794;76;21741;-73
2023/04/08 07:27:04;;;;;;;28.55;24.82;;;34.90;68.20;;;;;;1911771;74;21072;-74
2023/04/08 07:29:35;;;;;;;29.02;25.90;;;34.90;68.70;;;;;;1903935;74;21502;-73
2023/04/08 07:32:07;;;;;;;27.50;24.60;;;34.80;69.40;;;;;;1912787;73;21567;-74
2023/04/08 07:34:38;;;;;;;28.45;25.37;;;34.80;69.30;;;;;;1932016;73;21554;-75
2023/04/08 07:37:09;;;;;;;29.57;26.30;;;34.70;69.60;;;;;;1895264;73;21241;-74
2023/04/08 07:39:40;;;;;;;32.48;26.82;;;34.70;70.10;;;;;;1905958;73;21103;-73
2023/04/08 07:42:11;;;;;;;29.20;25.50;;;34.60;70.00;;;;;;1910261;74;21139;-75
2023/04/08 07:44:42;;;;;;;30.52;25.85;;;34.60;70.10;;;;;;1891205;73;21076;-72
2023/04/08 07:47:14;;;;;;;30.37;26.27;;;34.60;70.20;;;;;;1918722;73;22129;-74
2023/04/08 07:49:47;;;;;;;31.07;27.62;;;34.50;69.90;;;;;;1907765;74;21121;-73
2023/04/08 07:52:18;;;;;;;29.72;26.73;;;34.50;70.00;;;;;;1916816;74;21079;-73
2023/04/08 07:54:49;;;;;;;30.40;26.85;;;34.40;69.50;;;;;;1896938;74;21829;-74
2023/04/08 07:57:21;;;;;;;32.03;28.67;;;34.50;69.90;;;;;;1939263;73;21217;-73
2023/04/08 07:59:52;;;;;;;32.25;27.22;;;34.50;70.00;;;;;;1892713;74;21150;-73
2023/04/08 08:02:24;;;;;;;33.00;28.25;;;34.50;69.40;;;;;;1910448;73;21459;-74
2023/04/08 08:04:55;;;;;;;34.63;30.97;;;34.50;69.80;;;;;;1901066;74;21143;-73
2023/04/08 08:07:26;;;;;;;35.08;31.37;;;34.60;70.20;;;;;;1832214;76;21161;-74
2023/04/08 08:09:57;;;;;;;38.13;30.97;;;34.50;70.00;;;;;;1908858;75;21126;-74
2023/04/08 08:12:28;;;;;;;44.20;35.58;;;34.50;69.90;;;;;;1910365;73;21818;-73
2023/04/08 08:15:00;;;;;;;45.70;36.63;;;34.50;70.10;;;;;;1862568;75;21134;-75
2023/04/08 08:17:32;;;;;;;44.25;34.85;;;34.40;70.50;;;;;;1911723;73;21152;-74
2023/04/08 08:20:04;;;;;;;35.13;31.42;;;34.40;70.50;;;;;;1893180;73;21109;-74
2023/04/08 08:22:35;;;;;;;37.00;31.77;;;34.40;70.50;;;;;;1896395;74;21162;-74
2023/04/08 08:25:08;;;;;;;35.17;31.33;;;34.30;70.90;;;;;;1909959;73;21119;-74
2023/04/08 08:27:41;;;;;;;42.50;32.98;;;34.30;70.80;;;;;;1916482;74;21286;-74
2023/04/08 08:30:12;;;;;;;34.25;30.12;;;34.30;71.20;;;;;;1912417;73;21068;-74
2023/04/08 08:32:43;;;;;;;33.58;29.50;;;34.30;70.90;;;;;;1911721;73;21205;-73
2023/04/08 08:35:15;;;;;;;44.50;28.52;;;34.20;71.00;;;;;;1872933;75;21159;-73
2023/04/08 08:37:46;;;;;;;33.85;29.82;;;34.20;70.90;;;;;;1849148;76;21194;-73
2023/04/08 08:40:18;;;;;;;35.78;30.25;;;34.20;71.00;;;;;;1906937;74;21721;-74
2023/04/08 08:42:53;;;;;;;36.83;32.48;;;34.10;71.30;;;;;;1898675;74;21168;-73
2023/04/08 08:45:24;;;;;;;38.17;34.08;;;34.10;71.40;;;;;;1924646;74;21093;-73
2023/04/08 08:47:56;;;;;;;35.40;31.57;;;34.10;71.90;;;;;;1917269;73;21607;-73
2023/04/08 08:50:27;;;;;;;38.92;32.73;;;34.10;71.70;;;;;;1901646;73;21665;-72
2023/04/08 08:52:58;;;;;;;41.98;27.58;;;34.00;72.00;;;;;;1922317;73;21156;-74
2023/04/08 08:55:37;;;;;;;27.80;21.42;;;34.00;71.40;;;;;;1911555;73;21190;-73
2023/04/08 08:58:10;;;;;;;28.75;19.60;;;34.00;70.40;;;;;;1903383;73;21723;-75
2023/04/08 09:00:45;;;;;;;25.75;19.52;;;34.00;69.50;;;;;;1916810;74;21621;-75
2023/04/08 09:03:29;;;;;;;36.73;19.90;;;34.00;69.70;;;;;;1905141;73;21150;-75
2023/04/08 09:06:07;;;;;;;26.15;19.75;;;34.00;69.50;;;;;;1906710;74;21090;-74
2023/04/08 09:08:36;;;;;;;26.80;19.17;;;34.00;69.40;;;;;;1897743;74;21107;-74
2023/04/08 09:11:23;;;;;;;27.35;19.70;;;34.00;69.50;;;;;;1899906;73;21158;-75
2023/04/08 09:13:56;;;;;;;23.42;20.30;;;34.00;69.30;;;;;;1916296;73;21657;-75
2023/04/08 09:16:27;;;;;;;27.32;20.10;;;33.90;69.30;;;;;;1908930;74;21171;-76
2023/04/08 09:19:00;;;;;;;25.43;21.25;;;33.90;69.40;;;;;;1889931;74;21156;-75
2023/04/08 09:21:32;;;;;;;24.32;21.00;;;33.90;69.60;;;;;;1938343;73;21170;-77
2023/04/08 09:24:04;;;;;;;28.92;21.37;;;33.90;69.60;;;;;;1926984;73;21069;-75
2023/04/08 09:26:40;;;;;;;29.18;22.15;;;33.80;69.50;;;;;;1903022;74;21632;-74
2023/04/08 09:29:10;;;;;;;28.02;22.62;;;33.80;69.90;;;;;;1924276;73;21198;-77
2023/04/08 09:31:43;;;;;;;24.12;21.52;;;33.70;70.00;;;;;;1866866;75;21653;-74
2023/04/08 09:34:22;;;;;;;28.73;21.90;;;33.70;70.20;;;;;;1902099;74;21172;-75
2023/04/08 09:36:50;;;;;;;28.50;23.12;;;33.70;70.60;;;;;;1906482;74;21299;-75
2023/04/08 09:39:22;;;;;;;27.80;23.10;;;33.70;70.50;;;;;;1896500;74;21296;-76
2023/04/08 09:41:54;;;;;;;32.33;25.02;;;33.60;70.70;;;;;;1902989;74;21610;-73
2023/04/08 09:44:28;;;;;;;33.28;25.65;;;33.60;70.90;;;;;;1902593;74;21139;-76
2023/04/08 09:47:07;;;;;;;32.70;26.02;;;33.60;71.20;;;;;;1910739;73;21232;-75
2023/04/08 09:49:59;;;;;;;34.70;26.97;;;33.60;71.50;;;;;;1907743;74;21134;-74
2023/04/08 09:52:32;;;;;;;32.00;26.77;;;33.60;71.30;;;;;;1911454;74;21140;-75
2023/04/08 09:55:05;;;;;;;35.83;28.42;;;33.60;71.90;;;;;;1916152;74;21085;-76
2023/04/08 09:57:48;;;;;;;39.98;28.40;;;33.50;71.80;;;;;;1869336;75;21976;-76
2023/04/08 10:00:19;;;;;;;38.35;29.75;;;33.50;72.20;;;;;;1874636;74;21177;-80
2023/04/08 10:03:04;;;;;;;36.42;29.05;;;33.40;72.50;;;;;;1917452;73;21191;-80
2023/04/08 10:05:38;;;;;;;34.53;28.83;;;33.40;72.60;;;;;;1889824;74;21204;-80
2023/04/08 10:08:09;;;;;;;34.00;30.35;;;33.40;72.90;;;;;;1906708;74;21147;-81
2023/04/08 10:10:41;;;;;;;32.65;29.12;;;33.30;72.80;;;;;;1906384;74;21188;-78
2023/04/08 10:13:15;;;;;;;35.90;28.87;;;33.30;72.90;;;;;;1880519;75;21186;-78
2023/04/08 10:15:47;;;;;;;34.20;29.12;;;33.30;72.70;;;;;;1893897;74;21217;-79
2023/04/08 10:18:21;;;;;;;33.30;29.67;;;33.20;72.70;;;;;;1910238;73;21183;-80
2023/04/08 10:20:52;;;;;;;34.50;29.02;;;33.20;73.10;;;;;;1895329;73;21199;-80
2023/04/08 10:23:25;;;;;;;32.65;28.15;;;33.10;73.10;;;;;;1900820;74;21118;-80
2023/04/08 10:25:57;;;;;;;32.75;29.18;;;33.10;73.40;;;;;;1906771;74;21205;-81
2023/04/08 10:28:28;;;;;;;35.08;29.48;;;33.10;73.30;;;;;;1877369;75;21465;-80
2023/04/08 10:31:00;;;;;;;32.42;28.95;;;33.10;73.70;;;;;;1892617;74;21230;-81
2023/04/08 10:33:36;;;;;;;31.62;28.05;;;33.10;73.60;;;;;;1926750;73;21159;-80
2023/04/08 10:36:11;;;;;;;34.25;30.43;;;33.10;73.60;;;;;;1911753;73;21197;-79
2023/04/08 10:38:42;;;;;;;33.98;28.27;;;33.10;74.80;;;;;;1915356;74;21642;-80
2023/04/08 10:41:20;;;;;;;33.48;28.95;;;33.00;73.90;;;;;;1908366;74;21092;-80
2023/04/08 10:43:47;;;;;;;34.08;28.12;;;33.00;74.30;;;;;;1913793;73;21171;-79
2023/04/08 10:46:18;;;;;;;39.48;30.75;;;33.00;74.40;;;;;;1900441;74;21163;-81
2023/04/08 10:49:02;;;;;;;33.90;28.23;;;32.90;74.30;;;;;;1911537;73;21249;-81
2023/04/08 10:51:34;;;;;;;36.03;29.75;;;32.90;74.60;;;;;;1915809;73;21123;-79
2023/04/08 10:54:12;;;;;;;33.88;29.32;;;32.80;74.60;;;;;;1907448;74;21638;-79
2023/04/08 10:56:53;;;;;;;41.05;29.98;;;32.80;74.60;;;;;;1912732;73;21175;-80
2023/04/08 10:59:31;;;;;;;47.13;30.68;;;32.80;74.90;;;;;;1900850;74;21224;-80
2023/04/08 11:02:02;;;;;;;35.05;31.35;;;32.80;75.00;;;;;;1888189;74;21593;-81
2023/04/08 11:04:34;;;;;;;34.65;30.90;;;32.80;75.30;;;;;;1879476;74;21253;-81
2023/04/08 11:07:08;;;;;;;38.25;32.58;;;32.80;75.20;;;;;;1877247;76;21257;-80
2023/04/08 11:09:41;;;;;;;34.33;29.23;;;32.80;75.40;;;;;;1872028;73;21192;-81
2023/04/08 11:12:12;;;;;;;38.33;30.05;;;32.70;75.10;;;;;;1872308;75;21099;-81
2023/04/08 11:14:43;;;;;;;34.53;30.82;;;32.70;75.70;;;;;;1832352;77;21289;-80
2023/04/08 11:17:16;;;;;;;33.60;30.00;;;32.60;75.40;;;;;;1877207;74;21178;-79
2023/04/08 11:19:48;;;;;;;43.20;31.27;;;32.60;75.50;;;;;;1880155;76;21137;-79
2023/04/08 11:22:19;;;;;;;42.62;31.05;;;32.60;75.70;;;;;;1873839;76;21153;-80
2023/04/08 11:24:50;;;;;;;35.08;31.07;;;32.60;75.80;;;;;;1881247;74;21283;-80
2023/04/08 11:27:24;;;;;;;38.25;31.97;;;32.50;75.90;;;;;;1860168;74;21150;-80
2023/04/08 11:29:58;;;;;;;39.83;31.42;;;32.50;75.80;;;;;;1877608;74;21146;-80
2023/04/08 11:32:29;;;;;;;38.88;30.95;;;32.50;76.50;;;;;;1881899;75;21586;-80
2023/04/08 11:35:05;;;;;;;39.85;32.25;;;32.40;76.30;;;;;;1871255;74;21535;-84
2023/04/08 11:37:40;;;;;;;39.37;31.97;;;32.40;76.70;;;;;;1870267;74;21088;-80
2023/04/08 11:40:12;;;;;;;38.15;33.58;;;32.40;76.80;;;;;;1875492;76;21164;-80
2023/04/08 11:42:43;;;;;;;37.60;33.55;;;32.30;76.90;;;;;;1876216;74;21101;-80
2023/04/08 11:45:18;;;;;;;50.35;37.63;;;32.40;77.20;;;;;;1839019;76;21192;-81
2023/04/08 11:47:50;;;;;;;48.52;40.05;;;32.30;77.50;;;;;;1811104;78;21113;-80
2023/04/08 11:50:25;;;;;;;43.68;37.88;;;32.30;77.30;;;;;;1799579;78;21183;-80
2023/04/08 11:52:56;;;;;;;50.03;36.93;;;32.30;77.90;;;;;;1874395;75;21167;-79
2023/04/08 11:55:29;;;;;;;50.70;39.48;;;32.20;77.00;;;;;;1885873;74;21095;-81
2023/04/08 11:58:06;;;;;;;41.73;37.23;;;32.20;78.60;;;;;;1878495;75;21252;-79
2023/04/08 12:00:37;;;;;;;41.45;36.90;;;32.20;78.20;;;;;;1870769;74;21088;-79
2023/04/08 12:03:08;;;;;;;46.08;38.65;;;32.20;78.50;;;;;;1866176;74;21594;-80
2023/04/08 12:05:40;;;;;;;45.08;37.67;;;32.20;78.70;;;;;;1866779;74;21363;-80
2023/04/08 12:08:11;;;;;;;46.13;38.33;;;32.10;78.80;;;;;;1884058;74;21497;-80
2023/04/08 12:10:42;;;;;;;49.00;40.05;;;32.10;78.90;;;;;;1870209;75;21554;-80
2023/04/08 12:13:13;;;;;;;47.43;37.73;;;32.10;79.00;;;;;;1866338;75;21097;-81
2023/04/08 12:15:44;;;;;;;42.65;37.42;;;32.10;79.50;;;;;;1883256;75;21126;-80
2023/04/08 12:18:15;;;;;;;43.73;37.70;;;32.00;79.10;;;;;;1879974;74;21176;-80
2023/04/08 12:20:46;;;;;;;43.80;36.80;;;32.00;79.30;;;;;;1838285;75;21131;-80
2023/04/08 12:23:18;;;;;;;47.43;38.88;;;32.00;79.30;;;;;;1856422;74;21136;-81
2023/04/08 12:25:49;;;;;;;44.20;37.78;;;32.00;79.40;;;;;;1887091;75;21625;-82
2023/04/08 12:28:20;;;;;;;44.65;36.63;;;32.00;79.30;;;;;;1878374;74;21162;-81
2023/04/08 12:30:51;;;;;;;43.55;37.90;;;32.00;79.10;;;;;;1862437;75;21229;-82
2023/04/08 12:33:22;;;;;;;46.70;38.73;;;32.00;79.60;;;;;;1871801;75;21151;-79
2023/04/08 12:35:54;;;;;;;47.00;40.00;;;32.00;80.50;;;;;;1863808;75;21205;-80
2023/04/08 12:38:26;;;;;;;48.92;40.25;;;32.00;79.90;;;;;;1871985;76;21148;-80
2023/04/08 12:40:57;;;;;;;42.98;36.65;;;31.90;80.00;;;;;;1877575;74;21190;-79
2023/04/08 12:43:28;;;;;;;49.00;38.65;;;31.90;80.10;;;;;;1881954;75;21158;-80
2023/04/08 12:45:59;;;;;;;45.08;37.50;;;32.00;80.50;;;;;;1881711;74;21154;-79
2023/04/08 12:48:30;;;;;;;47.20;38.10;;;31.90;80.30;;;;;;1881634;75;21139;-80
2023/04/08 12:51:01;;;;;;;48.42;40.20;;;31.90;80.40;;;;;;1872840;76;21097;-78
2023/04/08 12:53:32;;;;;;;48.87;38.02;;;31.90;80.50;;;;;;1880723;74;21685;-79
2023/04/08 12:56:03;;;;;;;50.52;40.67;;;31.80;80.60;;;;;;1877331;75;21727;-80